Time;durP1;ratioP1;P1;durP2;ratioP2;P2;SDS_P1;SDS_P2;PMS_P1;PMS_P2;Temp;Humidity;BMP_temperature;BMP_pressure;BME280_temperature;BME280_humidity;BME280_pressure;Samples;Min_cycle;Max_cycle;Signal;HPM_P1;HPM_P2
2021/01/17 00:00:37;;;;;;;12.23;9.43;;;;;;;;;;5015290;28;20029;-59
2021/01/17 00:03:15;;;;;;;10.27;7.83;;;;;;;;;;5017214;28;20025;-58
2021/01/17 00:05:45;;;;;;;11.77;9.13;;;;;;;;;;5017684;28;20045;-58
2021/01/17 00:11:43;;;;;;;22.83;13.00;;;;;;;;;;5020637;28;20037;-58
2021/01/17 00:14:18;;;;;;;11.67;9.87;;;;;;;;;;5019846;28;20029;-58
2021/01/17 00:19:49;;;;;;;10.73;9.40;;;;;;;;;;5020253;28;20068;-58
2021/01/17 00:22:25;;;;;;;10.47;8.00;;;;;;;;;;5020830;28;20046;-57
2021/01/17 00:25:03;;;;;;;14.20;10.37;;;;;;;;;;5021418;28;20022;-58
2021/01/17 00:36:54;;;;;;;10.57;7.97;;;;;;;;;;5060076;28;20032;-58
2021/01/17 00:39:34;;;;;;;11.57;8.33;;;;;;;;;;5037984;28;20037;-59
2021/01/17 00:42:19;;;;;;;11.18;8.80;;;;;;;;;;5038834;28;20063;-58
2021/01/17 00:45:17;;;;;;;11.83;9.87;;;;;;;;;;5037304;28;20078;-58
2021/01/17 00:47:57;;;;;;;14.50;11.00;;;;;;;;;;5038062;28;20082;-58
2021/01/17 00:50:38;;;;;;;13.85;10.77;;;;;;;;;;5038325;28;20028;-55
2021/01/17 00:53:28;;;;;;;14.33;9.93;;;;;;;;;;5038250;28;20030;-58
2021/01/17 00:56:26;;;;;;;12.93;9.80;;;;;;;;;;5038000;28;20042;-58
2021/01/17 00:59:04;;;;;;;17.83;12.50;;;;;;;;;;5010560;28;20166;-58
2021/01/17 01:02:05;;;;;;;14.60;11.33;;;;;;;;;;5039317;28;20025;-58
2021/01/17 01:10:35;;;;;;;11.77;8.70;;;;;;;;;;5045964;28;20049;-58
2021/01/17 01:13:10;;;;;;;15.27;10.43;;;;;;;;;;5061451;28;20021;-58
2021/01/17 01:16:11;;;;;;;12.93;9.27;;;;;;;;;;5060391;28;20025;-59
2021/01/17 01:18:53;;;;;;;12.90;9.13;;;;;;;;;;5082015;28;20124;-56
2021/01/17 01:21:36;;;;;;;14.90;9.33;;;;;;;;;;5082124;28;20029;-58
2021/01/17 01:24:32;;;;;;;17.70;9.67;;;;;;;;;;5064814;28;20109;-57
2021/01/17 01:30:20;;;;;;;8.93;8.03;;;;;;;;;;5041553;27;20117;-58
2021/01/17 01:33:18;;;;;;;12.73;11.07;;;;;;;;;;5060239;28;20029;-58
2021/01/17 01:36:14;;;;;;;16.57;10.93;;;;;;;;;;5059748;28;20049;-58
2021/01/17 01:38:50;;;;;;;15.33;11.27;;;;;;;;;;5042474;28;20029;-57
2021/01/17 01:41:34;;;;;;;16.93;14.10;;;;;;;;;;5060773;28;20036;-59
2021/01/17 01:47:02;;;;;;;14.07;10.10;;;;;;;;;;5058491;28;20041;-57
2021/01/17 01:49:38;;;;;;;15.17;10.83;;;;;;;;;;5059900;28;20083;-58
2021/01/17 01:55:14;;;;;;;15.63;9.97;;;;;;;;;;5059693;28;20086;-58
2021/01/17 01:57:59;;;;;;;17.23;9.93;;;;;;;;;;5059917;28;20059;-56
2021/01/17 02:00:47;;;;;;;14.43;11.33;;;;;;;;;;5042682;28;20090;-55
2021/01/17 02:03:14;;;;;;;20.03;11.50;;;;;;;;;;5059303;28;20471;-55
2021/01/17 02:05:46;;;;;;;16.67;12.10;;;;;;;;;;5060177;28;20039;-55
2021/01/17 02:08:39;;;;;;;15.57;11.27;;;;;;;;;;5060336;28;20354;-56
2021/01/17 02:11:28;;;;;;;19.43;14.80;;;;;;;;;;5042618;28;20024;-56
2021/01/17 02:17:22;;;;;;;17.87;12.60;;;;;;;;;;5059749;28;20039;-56
2021/01/17 02:20:10;;;;;;;22.23;12.43;;;;;;;;;;5018297;28;20067;-56
2021/01/17 02:22:58;;;;;;;18.67;11.67;;;;;;;;;;5042220;28;20048;-56
2021/01/17 02:25:57;;;;;;;17.60;13.20;;;;;;;;;;5018614;28;20065;-57
2021/01/17 02:28:43;;;;;;;;;;;;;;;;;;;;;
2021/01/17 02:31:41;;;;;;;16.30;11.03;;;;;;;;;;5017959;28;20137;-55
2021/01/17 02:34:31;;;;;;;16.23;13.30;;;;;;;;;;5025868;28;20460;-54
2021/01/17 02:37:08;;;;;;;;;;;;;;;;;;;;;
2021/01/17 02:42:30;;;;;;;14.07;10.70;;;;;;;;;;5017784;28;20090;-56
2021/01/17 02:48:33;;;;;;;15.10;12.23;;;;;;;;;;5017799;28;20065;-56
2021/01/17 02:54:25;;;;;;;14.13;10.80;;;;;;;;;;4978180;28;20042;-55
2021/01/17 02:57:06;;;;;;;19.83;13.20;;;;;;;;;;4992099;28;20532;-53
2021/01/17 02:59:54;;;;;;;15.30;9.95;;;;;;;;;;4999109;28;20038;-57
2021/01/17 03:05:40;;;;;;;18.47;12.43;;;;;;;;;;4997702;28;20057;-57
2021/01/17 03:08:25;;;;;;;13.68;12.10;;;;;;;;;;5004477;28;20034;-57
2021/01/17 03:11:22;;;;;;;16.83;11.80;;;;;;;;;;5020314;28;20026;-57
2021/01/17 03:14:02;;;;;;;13.93;11.50;;;;;;;;;;5020356;28;20033;-55
2021/01/17 03:19:58;;;;;;;20.20;12.57;;;;;;;;;;5017865;28;20074;-56
2021/01/17 03:28:50;;;;;;;13.57;11.97;;;;;;;;;;5080092;28;20113;-56
2021/01/17 03:31:39;;;;;;;19.70;15.60;;;;;;;;;;5036980;27;20053;-56
2021/01/17 03:34:28;;;;;;;19.47;15.13;;;;;;;;;;5059693;28;20111;-55
2021/01/17 03:37:21;;;;;;;21.60;14.17;;;;;;;;;;5061038;28;20055;-57
2021/01/17 03:42:54;;;;;;;18.57;13.00;;;;;;;;;;5038346;28;20041;-57
2021/01/17 03:45:30;;;;;;;15.63;12.80;;;;;;;;;;5059633;28;20033;-54
2021/01/17 03:48:09;;;;;;;17.77;13.33;;;;;;;;;;5045182;28;20153;-54
2021/01/17 03:50:47;;;;;;;22.00;13.57;;;;;;;;;;5059138;28;20048;-57
2021/01/17 03:53:17;;;;;;;18.17;13.27;;;;;;;;;;5060557;28;20033;-56
2021/01/17 03:56:08;;;;;;;20.23;15.00;;;;;;;;;;5060515;28;20029;-57
2021/01/17 03:58:47;;;;;;;13.60;11.33;;;;;;;;;;4987811;28;20039;-56
2021/01/17 04:01:38;;;;;;;17.07;12.97;;;;;;;;;;5060252;28;20032;-53
2021/01/17 04:04:07;;;;;;;18.20;14.32;;;;;;;;;;5060215;28;20033;-56
2021/01/17 04:07:05;;;;;;;12.87;11.10;;;;;;;;;;5065770;28;20045;-56
2021/01/17 04:10:01;;;;;;;17.00;13.47;;;;;;;;;;4989263;28;20045;-54
2021/01/17 04:12:56;;;;;;;17.60;12.70;;;;;;;;;;5059401;28;20076;-54
2021/01/17 04:15:48;;;;;;;13.43;10.97;;;;;;;;;;5052460;28;20043;-55
2021/01/17 04:18:43;;;;;;;16.77;14.20;;;;;;;;;;5060194;28;20033;-57
2021/01/17 04:21:39;;;;;;;14.30;12.60;;;;;;;;;;5059847;28;20025;-56
2021/01/17 04:24:15;;;;;;;20.30;14.13;;;;;;;;;;5059909;28;20036;-56
2021/01/17 04:27:19;;;;;;;21.97;14.03;;;;;;;;;;5059817;28;20025;-56
2021/01/17 04:30:04;;;;;;;18.97;14.97;;;;;;;;;;4978706;28;20464;-57
2021/01/17 04:32:36;;;;;;;21.43;13.70;;;;;;;;;;4955403;28;20100;-57
2021/01/17 04:35:35;;;;;;;16.27;13.33;;;;;;;;;;4970261;28;20122;-56
2021/01/17 04:38:50;;;;;;;;;;;;;;;;;;;;;
2021/01/17 04:41:31;;;;;;;18.97;14.07;;;;;;;;;;4971119;28;20113;-55
2021/01/17 04:44:04;;;;;;;19.37;11.63;;;;;;;;;;5031094;28;20053;-55
2021/01/17 04:53:07;;;;;;;19.35;16.50;;;;;;;;;;5032382;28;20410;-57
2021/01/17 04:55:43;;;;;;;17.57;12.23;;;;;;;;;;5029464;28;20041;-57
2021/01/17 04:58:31;;;;;;;21.33;14.77;;;;;;;;;;5033407;28;20373;-56
2021/01/17 05:01:34;;;;;;;18.20;11.47;;;;;;;;;;5098040;28;20029;-56
2021/01/17 05:04:31;;;;;;;15.67;11.77;;;;;;;;;;5000972;28;20475;-57
2021/01/17 05:07:05;;;;;;;17.43;14.00;;;;;;;;;;5033135;28;20026;-56
2021/01/17 05:12:40;;;;;;;16.33;13.17;;;;;;;;;;5024701;28;20033;-56
2021/01/17 05:15:15;;;;;;;;;;;;;;;;;;5033736;28;20096;-57
2021/01/17 05:18:03;;;;;;;19.03;14.27;;;;;;;;;;5033512;28;19917;-56
2021/01/17 05:23:49;;;;;;;21.30;15.23;;;;;;;;;;5033557;28;20493;-57
2021/01/17 05:26:38;;;;;;;20.30;13.47;;;;;;;;;;4981346;28;20478;-57
2021/01/17 05:29:38;;;;;;;16.77;14.97;;;;;;;;;;5033278;28;20026;-56
2021/01/17 05:32:00;;;;;;;21.03;14.43;;;;;;;;;;5040910;27;20060;-56
2021/01/17 05:34:35;;;;;;;18.27;14.57;;;;;;;;;;5013342;28;20543;-56
2021/01/17 05:37:20;;;;;;;19.60;13.60;;;;;;;;;;5053640;28;20036;-56
2021/01/17 05:40:10;;;;;;;22.50;15.10;;;;;;;;;;5053325;28;20033;-55
2021/01/17 05:45:51;;;;;;;16.97;12.30;;;;;;;;;;5053217;28;20044;-57
2021/01/17 05:48:49;;;;;;;22.63;15.10;;;;;;;;;;5053627;28;20522;-56
2021/01/17 05:51:45;;;;;;;17.97;15.03;;;;;;;;;;5044087;28;20442;-55
2021/01/17 05:54:11;;;;;;;16.33;14.50;;;;;;;;;;5051849;28;20482;-55
2021/01/17 05:59:57;;;;;;;18.73;15.37;;;;;;;;;;5052299;28;20037;-57
2021/01/17 06:03:05;;;;;;;22.73;16.17;;;;;;;;;;5052931;28;20025;-57
2021/01/17 06:05:49;;;;;;;;;;;;;;;;;;;;;
2021/01/17 06:08:29;;;;;;;18.90;16.47;;;;;;;;;;5053539;28;20025;-55
2021/01/17 06:14:48;;;;;;;21.60;16.73;;;;;;;;;;5036926;28;20029;-56
2021/01/17 06:17:25;;;;;;;17.60;15.47;;;;;;;;;;5042146;28;20068;-57
2021/01/17 06:20:16;;;;;;;22.43;15.00;;;;;;;;;;5053023;28;20029;-57
2021/01/17 06:23:19;;;;;;;24.67;17.87;;;;;;;;;;5053558;28;20104;-56
2021/01/17 06:26:22;;;;;;;;;;;;;;;;;;;;;
2021/01/17 06:29:09;;;;;;;18.90;15.17;;;;;;;;;;5039342;28;20063;-57
2021/01/17 06:31:57;;;;;;;24.30;16.37;;;;;;;;;;5046630;27;20045;-57
2021/01/17 06:37:46;;;;;;;;;;;;;;;;;;;;;
2021/01/17 06:40:19;;;;;;;20.83;15.73;;;;;;;;;;5052506;28;20108;-56
2021/01/17 06:43:14;;;;;;;20.70;17.37;;;;;;;;;;5034369;28;20036;-55
2021/01/17 06:52:57;;;;;;;22.38;16.15;;;;;;;;;;5015848;28;20053;-56
2021/01/17 06:58:29;;;;;;;18.70;15.80;;;;;;;;;;5075124;28;20036;-56
2021/01/17 07:01:35;;;;;;;20.60;16.63;;;;;;;;;;5061003;28;20501;-57
2021/01/17 07:10:32;;;;;;;23.63;15.23;;;;;;;;;;5066592;28;20036;-56
2021/01/17 07:13:05;;;;;;;20.20;14.60;;;;;;;;;;5033302;28;20566;-56
2021/01/17 07:15:46;;;;;;;31.17;19.20;;;;;;;;;;5032697;28;20112;-56
2021/01/17 07:18:26;;;;;;;18.92;13.50;;;;;;;;;;5058791;28;20519;-56
2021/01/17 07:27:31;;;;;;;28.33;17.47;;;;;;;;;;4932072;29;20173;-58
2021/01/17 07:30:18;;;;;;;18.07;13.33;;;;;;;;;;4946385;28;20038;-57
2021/01/17 07:33:08;;;;;;;24.73;16.63;;;;;;;;;;4989060;28;20046;-57
2021/01/17 07:42:27;;;;;;;25.07;15.70;;;;;;;;;;5032276;28;20494;-54
2021/01/17 07:48:14;;;;;;;25.93;14.37;;;;;;;;;;5010786;28;20088;-55
2021/01/17 07:51:19;;;;;;;20.10;15.80;;;;;;;;;;5012083;28;20079;-57
2021/01/17 07:57:17;;;;;;;23.02;16.67;;;;;;;;;;4996103;28;20034;-57
2021/01/17 08:00:14;;;;;;;;;;;;;;;;;;;;;
2021/01/17 08:02:57;;;;;;;19.87;14.57;;;;;;;;;;5010346;28;20121;-57
2021/01/17 08:05:51;;;;;;;21.43;15.83;;;;;;;;;;5011387;28;20056;-57
2021/01/17 08:08:36;;;;;;;25.93;18.97;;;;;;;;;;5011016;28;20026;-58
2021/01/17 08:11:52;;;;;;;27.47;17.23;;;;;;;;;;5011486;28;20030;-56
2021/01/17 08:14:48;;;;;;;23.07;18.43;;;;;;;;;;5010712;28;20069;-57
2021/01/17 08:17:54;;;;;;;19.30;16.47;;;;;;;;;;5011180;28;20022;-57
2021/01/17 08:23:29;;;;;;;24.83;18.37;;;;;;;;;;5003204;28;20030;-57
2021/01/17 08:29:14;;;;;;;;;;;;;;;;;;5006515;28;20058;-58
2021/01/17 08:32:03;;;;;;;19.10;14.47;;;;;;;;;;5015582;28;19906;-58
2021/01/17 08:37:47;;;;;;;27.17;18.57;;;;;;;;;;5026062;28;20075;-58
2021/01/17 08:40:19;;;;;;;20.23;17.50;;;;;;;;;;5032894;28;20505;-58
2021/01/17 08:49:06;;;;;;;22.27;16.80;;;;;;;;;;5034241;28;20030;-57
2021/01/17 08:51:58;;;;;;;25.70;19.48;;;;;;;;;;5034970;28;20036;-56
2021/01/17 08:54:48;;;;;;;19.37;16.23;;;;;;;;;;5023336;28;20049;-56
2021/01/17 08:57:42;;;;;;;24.50;17.13;;;;;;;;;;5035977;28;20112;-57
2021/01/17 09:00:25;;;;;;;23.33;18.10;;;;;;;;;;5034696;28;20470;-57
2021/01/17 09:03:12;;;;;;;23.17;16.73;;;;;;;;;;5015949;28;20026;-56
2021/01/17 09:05:58;;;;;;;22.27;18.67;;;;;;;;;;5033460;28;20090;-56
2021/01/17 09:08:31;;;;;;;25.53;18.23;;;;;;;;;;5033133;28;20033;-56
2021/01/17 09:11:08;;;;;;;;;;;;;;;;;;;;;
2021/01/17 09:13:53;;;;;;;22.70;18.43;;;;;;;;;;5033976;28;20374;-57
2021/01/17 09:16:23;;;;;;;24.90;16.83;;;;;;;;;;5033500;28;20050;-57
2021/01/17 09:19:14;;;;;;;18.58;13.77;;;;;;;;;;5018524;28;20443;-55
2021/01/17 09:21:57;;;;;;;31.63;16.53;;;;;;;;;;5033656;28;20470;-55
2021/01/17 09:24:30;;;;;;;26.20;18.80;;;;;;;;;;5030589;28;20037;-56
2021/01/17 09:29:59;;;;;;;19.67;16.23;;;;;;;;;;5031825;28;20082;-56
2021/01/17 09:32:34;;;;;;;18.47;16.37;;;;;;;;;;5033435;28;20029;-55
2021/01/17 09:41:54;;;;;;;24.20;15.50;;;;;;;;;;5116839;28;20030;-57
2021/01/17 09:44:49;;;;;;;24.13;16.30;;;;;;;;;;5101168;28;20051;-57
2021/01/17 09:47:49;;;;;;;;;;;;;;;;;;;;;
2021/01/17 09:56:50;;;;;;;;;;;;;;;;;;;;;
2021/01/17 09:59:44;;;;;;;22.37;16.50;;;;;;;;;;5111185;28;20046;-56
2021/01/17 10:02:37;;;;;;;;;;;;;;;;;;;;;
2021/01/17 10:05:12;;;;;;;23.40;16.17;;;;;;;;;;5116322;28;20049;-56
2021/01/17 10:08:13;;;;;;;23.60;16.07;;;;;;;;;;5116719;28;20030;-57
2021/01/17 10:16:52;;;;;;;21.43;16.20;;;;;;;;;;5106272;28;20131;-58
2021/01/17 10:19:40;;;;;;;25.53;18.23;;;;;;;;;;5114786;28;20043;-57
2021/01/17 10:22:45;;;;;;;22.53;16.50;;;;;;;;;;5115864;28;20112;-58
2021/01/17 10:25:30;;;;;;;22.07;15.10;;;;;;;;;;5114514;28;20031;-57
2021/01/17 10:28:17;;;;;;;18.73;14.77;;;;;;;;;;5116510;28;20024;-57
2021/01/17 10:31:05;;;;;;;19.93;14.97;;;;;;;;;;5115728;28;20016;-58
2021/01/17 10:34:04;;;;;;;20.10;16.17;;;;;;;;;;5096617;27;20053;-58
2021/01/17 10:36:30;;;;;;;23.63;17.60;;;;;;;;;;5049900;28;20546;-57
2021/01/17 10:39:21;;;;;;;20.50;15.20;;;;;;;;;;5052524;28;20416;-57
2021/01/17 10:42:14;;;;;;;19.20;13.97;;;;;;;;;;5050455;28;20120;-56
2021/01/17 10:45:04;;;;;;;18.63;14.60;;;;;;;;;;5052799;28;20104;-58
2021/01/17 10:48:02;;;;;;;21.88;16.00;;;;;;;;;;5052339;28;20100;-58
2021/01/17 10:50:46;;;;;;;17.90;13.40;;;;;;;;;;5051411;28;20037;-59
2021/01/17 10:53:37;;;;;;;17.67;12.33;;;;;;;;;;5052179;28;20413;-58
2021/01/17 10:56:14;;;;;;;20.80;13.63;;;;;;;;;;5052350;28;20497;-59
2021/01/17 11:01:57;;;;;;;20.13;14.30;;;;;;;;;;5052255;28;20505;-58
2021/01/17 11:04:32;;;;;;;18.57;13.27;;;;;;;;;;5053502;28;20025;-58
2021/01/17 11:07:01;;;;;;;13.83;10.13;;;;;;;;;;5035392;28;20048;-59
2021/01/17 11:09:49;;;;;;;17.37;12.30;;;;;;;;;;5038035;28;20077;-58
2021/01/17 11:12:38;;;;;;;19.20;13.70;;;;;;;;;;5034288;28;20029;-59
2021/01/17 11:15:23;;;;;;;18.20;12.37;;;;;;;;;;5051761;28;20454;-58
2021/01/17 11:18:18;;;;;;;19.57;13.40;;;;;;;;;;5051717;28;20101;-58
2021/01/17 11:21:19;;;;;;;20.07;14.37;;;;;;;;;;5043837;28;20085;-59
2021/01/17 11:24:09;;;;;;;18.67;11.00;;;;;;;;;;4970288;28;20445;-59
2021/01/17 11:26:37;;;;;;;16.33;12.30;;;;;;;;;;4998650;28;20060;-58
2021/01/17 11:29:36;;;;;;;17.50;12.20;;;;;;;;;;5024158;28;20033;-58
2021/01/17 11:32:20;;;;;;;15.90;11.57;;;;;;;;;;5025825;28;20036;-59
2021/01/17 11:38:13;;;;;;;15.03;12.17;;;;;;;;;;5056510;28;20041;-58
2021/01/17 11:40:48;;;;;;;15.47;10.73;;;;;;;;;;5039579;28;20029;-57
2021/01/17 11:43:16;;;;;;;17.10;13.53;;;;;;;;;;5051410;28;20446;-59
2021/01/17 11:45:57;;;;;;;17.37;12.53;;;;;;;;;;5050758;28;20104;-59
2021/01/17 11:48:49;;;;;;;21.03;13.33;;;;;;;;;;5033334;28;20401;-59
2021/01/17 11:51:24;;;;;;;17.73;13.90;;;;;;;;;;5035222;28;20025;-59
2021/01/17 11:54:08;;;;;;;17.40;12.37;;;;;;;;;;5050876;28;20521;-58
2021/01/17 11:56:59;;;;;;;17.07;11.43;;;;;;;;;;5050935;28;20188;-58
2021/01/17 11:59:34;;;;;;;14.80;11.00;;;;;;;;;;5050946;28;20104;-60
2021/01/17 12:02:32;;;;;;;15.13;10.67;;;;;;;;;;5050928;28;20029;-59
2021/01/17 12:05:32;;;;;;;;;;;;;;;;;;;;;
2021/01/17 12:08:08;;;;;;;16.63;10.47;;;;;;;;;;5058384;28;20033;-60
2021/01/17 12:11:14;;;;;;;15.13;11.23;;;;;;;;;;5038359;28;20033;-60
2021/01/17 12:14:05;;;;;;;11.67;10.07;;;;;;;;;;5033233;28;20470;-60
2021/01/17 12:19:53;;;;;;;13.23;10.17;;;;;;;;;;5055773;28;20366;-60
2021/01/17 12:22:41;;;;;;;13.83;10.57;;;;;;;;;;5054540;28;20029;-60
2021/01/17 12:28:37;;;;;;;13.00;10.07;;;;;;;;;;5012529;28;20050;-59
2021/01/17 12:31:22;;;;;;;15.25;10.85;;;;;;;;;;5054598;28;20375;-59
2021/01/17 12:33:51;;;;;;;13.57;9.80;;;;;;;;;;5034441;27;20493;-60
2021/01/17 12:36:36;;;;;;;16.27;10.60;;;;;;;;;;5053730;27;20391;-60
2021/01/17 12:42:19;;;;;;;12.00;9.10;;;;;;;;;;5048369;28;20426;-60
2021/01/17 12:45:02;;;;;;;12.13;7.93;;;;;;;;;;5054000;28;20123;-60
2021/01/17 12:47:47;;;;;;;14.57;8.67;;;;;;;;;;5022205;28;20030;-60
2021/01/17 12:50:26;;;;;;;;;;;;;;;;;;;;;
2021/01/17 12:53:15;;;;;;;22.03;12.63;;;;;;;;;;5051551;28;20139;-59
2021/01/17 12:55:56;;;;;;;21.63;12.93;;;;;;;;;;5011700;28;20046;-60
2021/01/17 12:58:45;;;;;;;;;;;;;;;;;;;;;
2021/01/17 13:01:53;;;;;;;22.83;15.97;;;;;;;;;;5008602;28;20094;-60
2021/01/17 13:04:38;;;;;;;20.23;15.20;;;;;;;;;;5011700;28;20042;-59
2021/01/17 13:07:16;;;;;;;27.87;14.97;;;;;;;;;;5014901;28;20034;-60
2021/01/17 13:10:12;;;;;;;20.73;15.00;;;;;;;;;;5012721;28;20465;-60
2021/01/17 13:12:46;;;;;;;24.43;13.87;;;;;;;;;;5011668;28;20025;-60
2021/01/17 13:15:50;;;;;;;27.77;17.57;;;;;;;;;;4996319;28;20037;-60
2021/01/17 13:18:32;;;;;;;19.93;15.27;;;;;;;;;;5003727;28;20042;-60
2021/01/17 13:21:17;;;;;;;19.23;14.70;;;;;;;;;;5012831;28;20113;-60
2021/01/17 13:24:22;;;;;;;22.20;15.80;;;;;;;;;;5011774;28;20113;-60
2021/01/17 13:27:04;;;;;;;16.43;11.63;;;;;;;;;;5028909;28;20041;-60
2021/01/17 13:29:47;;;;;;;15.80;11.60;;;;;;;;;;5010782;28;20045;-60
2021/01/17 13:32:29;;;;;;;12.77;10.30;;;;;;;;;;5010498;28;20034;-60
2021/01/17 13:37:52;;;;;;;10.10;8.57;;;;;;;;;;5011224;28;20037;-60
2021/01/17 13:47:00;;;;;;;14.13;8.87;;;;;;;;;;4991073;28;20105;-60
2021/01/17 13:50:07;;;;;;;10.53;8.60;;;;;;;;;;4991448;28;20052;-58
2021/01/17 13:52:55;;;;;;;9.23;7.40;;;;;;;;;;4991310;28;20037;-60
2021/01/17 13:55:49;;;;;;;8.57;7.67;;;;;;;;;;4991951;28;20049;-60
2021/01/17 13:58:30;;;;;;;10.27;6.80;;;;;;;;;;5016807;28;20033;-60
2021/01/17 14:04:22;;;;;;;10.03;8.23;;;;;;;;;;5022097;28;20033;-60
2021/01/17 14:07:02;;;;;;;7.53;6.37;;;;;;;;;;5033074;28;20021;-60
2021/01/17 14:09:39;;;;;;;9.80;6.87;;;;;;;;;;5010638;28;20056;-60
2021/01/17 14:12:41;;;;;;;8.67;6.97;;;;;;;;;;5011256;28;20040;-60
2021/01/17 14:15:52;;;;;;;8.47;6.67;;;;;;;;;;5011069;28;20029;-60
2021/01/17 14:18:14;;;;;;;7.57;5.93;;;;;;;;;;5015651;28;20124;-60
2021/01/17 14:21:00;;;;;;;10.15;7.18;;;;;;;;;;5010636;28;20040;-60
2021/01/17 14:23:29;;;;;;;10.43;6.90;;;;;;;;;;4994111;28;20491;-60
2021/01/17 14:26:19;;;;;;;7.77;5.53;;;;;;;;;;5009621;28;20103;-60
2021/01/17 14:29:00;;;;;;;7.38;6.32;;;;;;;;;;4995045;28;20037;-60
2021/01/17 14:35:09;;;;;;;8.37;7.03;;;;;;;;;;5009712;28;20136;-57
2021/01/17 14:37:37;;;;;;;9.27;7.20;;;;;;;;;;5009764;28;20242;-57
2021/01/17 14:43:28;;;;;;;17.50;13.60;;;;;;;;;;4990857;28;20038;-58
2021/01/17 14:46:07;;;;;;;17.50;12.23;;;;;;;;;;5012578;28;20033;-57
2021/01/17 14:48:41;;;;;;;18.63;12.33;;;;;;;;;;5014984;28;20124;-57
2021/01/17 14:51:19;;;;;;;23.97;16.47;;;;;;;;;;5017434;28;20300;-58
2021/01/17 14:54:07;;;;;;;24.40;17.10;;;;;;;;;;5030278;28;20761;-58
2021/01/17 14:56:51;;;;;;;23.77;17.43;;;;;;;;;;5034211;28;20038;-58
2021/01/17 15:02:40;;;;;;;23.33;17.17;;;;;;;;;;5029588;28;20060;-57
2021/01/17 15:05:30;;;;;;;22.53;18.60;;;;;;;;;;5013260;28;20459;-57
2021/01/17 15:08:27;;;;;;;;;;;;;;;;;;;;;
2021/01/17 15:11:16;;;;;;;25.33;18.50;;;;;;;;;;5027859;28;20038;-58
2021/01/17 15:14:02;;;;;;;;;;;;;;;;;;;;;
2021/01/17 15:16:47;;;;;;;24.80;19.13;;;;;;;;;;4997897;28;20120;-57
2021/01/17 15:22:52;;;;;;;;;;;;;;;;;;;;;
2021/01/17 15:25:39;;;;;;;27.37;18.17;;;;;;;;;;5032100;28;20418;-57
2021/01/17 15:28:11;;;;;;;24.03;16.03;;;;;;;;;;5032022;28;20062;-57
2021/01/17 15:30:46;;;;;;;22.63;16.53;;;;;;;;;;5035689;28;20029;-59
2021/01/17 15:33:22;;;;;;;22.30;15.60;;;;;;;;;;5030007;28;20065;-59
2021/01/17 15:36:21;;;;;;;26.33;16.87;;;;;;;;;;5029395;27;20486;-59
2021/01/17 15:44:45;;;;;;;26.57;18.27;;;;;;;;;;5048057;28;20072;-59
2021/01/17 15:47:32;;;;;;;22.57;16.80;;;;;;;;;;5032659;28;20518;-59
2021/01/17 15:50:40;;;;;;;23.70;15.87;;;;;;;;;;5050839;28;20029;-59
2021/01/17 15:53:25;;;;;;;17.93;11.50;;;;;;;;;;5051033;28;20024;-59
2021/01/17 15:56:00;;;;;;;12.77;10.03;;;;;;;;;;5031127;28;20037;-59
2021/01/17 15:58:49;;;;;;;14.00;11.23;;;;;;;;;;5050501;28;20050;-59
2021/01/17 16:01:36;;;;;;;16.07;12.20;;;;;;;;;;5032180;28;20547;-59
2021/01/17 16:04:34;;;;;;;14.43;10.40;;;;;;;;;;5038269;28;20044;-59
2021/01/17 16:10:29;;;;;;;16.43;13.17;;;;;;;;;;5050630;28;20045;-59
2021/01/17 16:13:08;;;;;;;;;;;;;;;;;;;;;
2021/01/17 16:16:22;;;;;;;16.10;11.13;;;;;;;;;;5042360;28;20455;-59
2021/01/17 16:19:17;;;;;;;15.17;12.03;;;;;;;;;;4969904;28;20122;-59
2021/01/17 16:21:53;;;;;;;13.30;11.57;;;;;;;;;;4954812;28;20031;-59
2021/01/17 16:24:19;;;;;;;19.13;12.83;;;;;;;;;;5017412;28;20044;-59
2021/01/17 16:27:12;;;;;;;15.23;11.07;;;;;;;;;;5050436;28;20029;-59
2021/01/17 16:29:54;;;;;;;15.80;10.27;;;;;;;;;;5050999;28;20032;-59
2021/01/17 16:35:48;;;;;;;14.10;10.17;;;;;;;;;;5042206;28;20080;-59
2021/01/17 16:38:31;;;;;;;10.93;9.23;;;;;;;;;;5050044;27;20089;-59
2021/01/17 16:41:16;;;;;;;13.83;9.90;;;;;;;;;;5032220;28;20044;-59
2021/01/17 16:43:53;;;;;;;10.80;7.37;;;;;;;;;;5050854;28;20017;-59
2021/01/17 16:46:57;;;;;;;11.30;6.60;;;;;;;;;;5050643;28;20044;-59
2021/01/17 16:49:52;;;;;;;10.53;7.33;;;;;;;;;;5074664;28;20025;-59
2021/01/17 16:52:41;;;;;;;14.30;8.70;;;;;;;;;;5087620;28;20033;-59
2021/01/17 16:55:14;;;;;;;10.07;7.33;;;;;;;;;;5054563;28;20419;-59
2021/01/17 16:58:09;;;;;;;9.20;7.70;;;;;;;;;;5053986;28;20029;-59
2021/01/17 17:00:55;;;;;;;;;;;;;;;;;;;;;
2021/01/17 17:06:53;;;;;;;8.23;6.63;;;;;;;;;;5046507;28;20029;-59
2021/01/17 17:09:19;;;;;;;10.05;7.95;;;;;;;;;;5054932;28;20053;-59
2021/01/17 17:12:30;;;;;;;;;;;;;;;;;;;;;
2021/01/17 17:14:59;;;;;;;8.30;6.77;;;;;;;;;;5069960;28;20510;-59
2021/01/17 17:17:34;;;;;;;8.90;6.57;;;;;;;;;;5074600;28;20064;-59
2021/01/17 17:20:42;;;;;;;8.63;7.13;;;;;;;;;;5075075;28;20032;-59
2021/01/17 17:23:40;;;;;;;7.43;6.10;;;;;;;;;;5074449;28;20032;-59
2021/01/17 17:29:09;;;;;;;;;;;;;;;;;;;;;
2021/01/17 17:32:10;;;;;;;7.33;6.17;;;;;;;;;;5059320;28;20120;-59
2021/01/17 17:34:51;;;;;;;;;;;;;;;;;;5075034;28;20127;-59
2021/01/17 17:40:38;;;;;;;8.80;6.43;;;;;;;;;;5055274;28;20054;-59
2021/01/17 17:43:43;;;;;;;6.38;5.60;;;;;;;;;;5106074;28;20526;-59
2021/01/17 17:46:37;;;;;;;;;;;;;;;;;;;;;
2021/01/17 17:49:15;;;;;;;7.63;5.70;;;;;;;;;;5114039;28;20030;-59
2021/01/17 17:52:03;;;;;;;8.73;6.83;;;;;;;;;;5094830;28;20039;-58
2021/01/17 17:58:04;;;;;;;10.70;7.97;;;;;;;;;;5114319;28;20402;-59
2021/01/17 18:00:40;;;;;;;9.27;7.07;;;;;;;;;;5096627;28;20528;-59
2021/01/17 18:06:57;;;;;;;7.77;5.93;;;;;;;;;;5108673;28;20392;-59
2021/01/17 18:09:40;;;;;;;8.20;5.50;;;;;;;;;;5053182;28;20473;-59
2021/01/17 18:12:22;;;;;;;9.57;6.23;;;;;;;;;;5052604;28;20471;-59
2021/01/17 18:14:57;;;;;;;5.97;5.37;;;;;;;;;;5034647;28;20531;-59
2021/01/17 18:17:45;;;;;;;4.93;4.43;;;;;;;;;;5034376;28;20029;-58
2021/01/17 18:20:29;;;;;;;6.47;4.93;;;;;;;;;;5052032;28;20028;-58
2021/01/17 18:23:05;;;;;;;5.43;4.07;;;;;;;;;;5123028;27;20025;-58
2021/01/17 18:25:50;;;;;;;5.97;4.90;;;;;;;;;;5052266;28;20025;-59
2021/01/17 18:28:25;;;;;;;5.53;3.97;;;;;;;;;;5019589;28;20467;-59
2021/01/17 18:31:32;;;;;;;5.93;4.90;;;;;;;;;;5052531;28;20351;-59
2021/01/17 18:34:45;;;;;;;7.10;5.20;;;;;;;;;;5052584;28;20032;-59
2021/01/17 18:37:55;;;;;;;4.87;4.10;;;;;;;;;;5053859;28;20497;-59
2021/01/17 18:40:30;;;;;;;6.50;4.70;;;;;;;;;;5099603;27;20028;-59
2021/01/17 18:46:28;;;;;;;5.43;4.57;;;;;;;;;;5051972;28;20482;-59
2021/01/17 18:49:19;;;;;;;;;;;;;;;;;;;;;
2021/01/17 18:51:55;;;;;;;8.80;4.97;;;;;;;;;;5052535;28;20051;-58
2021/01/17 18:54:30;;;;;;;6.13;4.10;;;;;;;;;;5065308;28;20443;-58
2021/01/17 18:57:26;;;;;;;9.43;5.17;;;;;;;;;;5022109;28;20267;-59
2021/01/17 19:00:05;;;;;;;6.03;4.83;;;;;;;;;;5051671;28;20025;-60
2021/01/17 19:02:54;;;;;;;7.43;5.60;;;;;;;;;;5052252;28;20032;-60
2021/01/17 19:05:49;;;;;;;6.87;4.03;;;;;;;;;;5052025;28;20037;-59
2021/01/17 19:08:28;;;;;;;5.07;3.97;;;;;;;;;;5117639;27;20500;-60
2021/01/17 19:11:23;;;;;;;6.37;4.63;;;;;;;;;;5111145;27;20042;-59
2021/01/17 19:14:08;;;;;;;4.97;3.70;;;;;;;;;;5133726;27;20552;-60
2021/01/17 19:16:51;;;;;;;6.43;4.60;;;;;;;;;;5099034;27;20111;-60
2021/01/17 19:22:53;;;;;;;;;;;;;;;;;;;;;
2021/01/17 19:25:45;;;;;;;6.37;5.23;;;;;;;;;;5133562;27;20375;-59
2021/01/17 19:31:41;;;;;;;8.13;5.43;;;;;;;;;;5133557;27;20060;-59
2021/01/17 19:34:48;;;;;;;;;;;;;;;;;;;;;
2021/01/17 19:37:45;;;;;;;7.13;5.03;;;;;;;;;;5129252;27;20053;-60
2021/01/17 19:40:22;;;;;;;;;;;;;;;;;;;;;
2021/01/17 19:42:54;;;;;;;7.27;5.63;;;;;;;;;;5113655;27;20118;-59
2021/01/17 19:45:50;;;;;;;6.57;5.73;;;;;;;;;;5133547;27;20404;-59
2021/01/17 19:48:30;;;;;;;7.73;5.60;;;;;;;;;;5116517;27;20027;-59
2021/01/17 19:51:12;;;;;;;6.05;4.43;;;;;;;;;;5134497;27;20015;-59
2021/01/17 19:53:55;;;;;;;7.97;5.60;;;;;;;;;;5054399;28;20049;-59
2021/01/17 19:59:39;;;;;;;6.75;4.47;;;;;;;;;;5050233;28;20033;-59
2021/01/17 20:05:13;;;;;;;6.13;5.13;;;;;;;;;;5050573;28;20036;-59
2021/01/17 20:10:46;;;;;;;6.17;5.53;;;;;;;;;;5050724;28;20426;-59
2021/01/17 20:13:25;;;;;;;6.97;5.30;;;;;;;;;;5034076;28;20033;-59
2021/01/17 20:16:15;;;;;;;7.53;5.27;;;;;;;;;;5050545;28;20021;-60
2021/01/17 20:18:49;;;;;;;5.72;5.15;;;;;;;;;;5051563;28;20036;-59
2021/01/17 20:21:34;;;;;;;;;;;;;;;;;;;;;
2021/01/17 20:24:04;;;;;;;7.50;5.37;;;;;;;;;;5053639;28;20029;-59
2021/01/17 20:27:15;;;;;;;9.33;7.17;;;;;;;;;;5054482;28;20036;-59
2021/01/17 20:29:48;;;;;;;5.03;4.43;;;;;;;;;;5042385;28;20124;-59
2021/01/17 20:35:13;;;;;;;8.27;5.43;;;;;;;;;;5053901;28;20128;-59
2021/01/17 20:37:41;;;;;;;7.10;5.77;;;;;;;;;;5033666;27;20330;-59
2021/01/17 20:40:17;;;;;;;5.50;4.60;;;;;;;;;;5053935;27;20056;-59
2021/01/17 20:46:09;;;;;;;;;;;;;;;;;;;;;
2021/01/17 20:48:50;;;;;;;6.70;4.73;;;;;;;;;;5053944;28;20385;-59
2021/01/17 20:51:22;;;;;;;8.15;5.15;;;;;;;;;;5054297;28;20029;-59